• Join FlightAware (Why Join?)
  • Login
  • US Flag 
08:04PM EST


 

Airport Tracker/Info


-or-


 

Live Flight TrackerFlight Track Log ✈ UAL3776 ✈ 05-Apr-2013 ✈ KIAD - KBUF

Flight Track Log - Related Links

Times and Time Zones

All times are in EDT time to prevent confusion due to time zone crossing. See the UAL3776 flight status page for this flight to view local times or setup timezone preferences in your user account.

Time Position Orientation Groundspeed Altitude Reporting Facility
EDT Latitude Longitude Course Direction KTS MPH feet Rate Location/Type
10:36PM 38.9667 -77.5167 North 178 205 2,700  Level Potomac TRACON
10:37PM 39.0000 -77.5667 311° West 221 254 5,500 2,700 Climbing Potomac TRACON
10:38PM 39.3408 -77.4500 North  Level FlightAware Approximate
10:38PM 39.0928 -77.5867 351° North 269 310 9,900  Level Washington Center
10:39PM 39.4427 -77.4500 North  Level FlightAware Approximate
10:39PM 39.1786 -77.5675 10° North 277 319 11,400  Level Washington Center
10:40PM 39.5446 -77.4500 North  Level FlightAware Approximate
10:40PM 39.2728 -77.5461 10° North 307 353 13,600  Level Washington Center
10:41PM 39.6359 -77.4500 North  Level FlightAware Approximate
10:41PM 39.3711 -77.5219 11° North 337 388 15,900  Level Washington Center
10:42PM 39.4714 -77.5003 North 351 404 18,300 2,100 Climbing Washington Center
10:43PM 39.5739 -77.4761 10° North 363 418 20,100 2,100 Climbing Washington Center
10:44PM 39.7089 -77.4611 North 372 428 23,000 1,980 Climbing New York Center
10:45PM 39.8156 -77.4578 North 372 428 24,600 1,500 Climbing New York Center
10:46PM 39.9197 -77.4569 360° North 367 422 26,000 660 Climbing New York Center
10:47PM 40.0303 -77.4567 360° North 373 429 26,000  Level New York Center
10:48PM 40.1394 -77.4453 North 384 442 26,000  Level New York Center
10:49PM 40.2500 -77.4450 360° North 394 453 26,000  Level New York Center
10:50PM 40.3583 -77.4447 360° North 394 453 26,000  Level New York Center
10:51PM 40.4692 -77.4389 North 389 448 26,000  Level New York Center
10:52PM 40.5756 -77.4383 360° North 384 442 26,000  Level New York Center
10:53PM 40.6839 -77.4381 360° North 384 442 26,000  Level New York Center
10:54PM 40.7947 -77.4350 North 384 442 26,000  Level New York Center
10:55PM 40.8972 -77.4642 348° North 379 436 26,000  Level New York Center
10:58PM 41.1081 -77.5931 335° Northwest 374 430 26,000  Level Cleveland Center
10:59PM 41.2053 -77.6519 336° Northwest 374 430 26,000  Level Cleveland Center
11:00PM 41.3008 -77.7114 335° Northwest 374 430 26,000  Level Cleveland Center
11:01PM 41.3981 -77.7678 336° Northwest 381 438 26,000 -120 Level Cleveland Center
11:02PM 41.4933 -77.8275 335° Northwest 381 438 25,800 -900 Descending Cleveland Center
11:03PM 41.5906 -77.8872 335° Northwest 381 438 24,300 -1,500 Descending Cleveland Center
11:04PM 41.6817 -77.9417 336° Northwest 376 433 22,900 -1,500 Descending Cleveland Center
11:05PM 41.7725 -77.9967 336° Northwest 363 418 21,300 -1,620 Descending Cleveland Center
11:06PM 41.8656 -78.0569 334° Northwest 363 418 19,700 -1,620 Descending Cleveland Center
11:07PM 41.9583 -78.1119 336° Northwest 368 423 18,100 -1,560 Descending Cleveland Center
11:08PM 42.0450 -78.1672 335° Northwest 357 411 16,700 -1,440 Descending Cleveland Center
11:09PM 42.1211 -78.2147 335° Northwest 346 398 15,200 -1,380 Descending Cleveland Center
11:10PM 42.2183 -78.2758 335° Northwest 346 398 14,000 -1,260 Descending Cleveland Center
11:11PM 42.3069 -78.3286 336° Northwest 346 398 12,800 -1,200 Descending Cleveland Center
11:12PM 42.3914 -78.3819 335° Northwest 346 398 11,600 -1,020 Descending Cleveland Center
11:13PM 42.4694 -78.4356 333° Northwest 335 386 10,800 -960 Descending Cleveland Center
11:14PM 42.5267 -78.4897 325° Northwest 294 338 9,700 -1,260 Descending Cleveland Center
11:15PM 42.5797 -78.5472 321° Northwest 261 300 8,300 -1,380 Descending Cleveland Center
11:16PM 42.6350 -78.5964 327° Northwest 247 284 7,000 -1,320 Descending Cleveland Center
11:17PM 42.6922 -78.6511 325° Northwest 247 284 5,800 -1,320 Descending Cleveland Center
11:18PM 42.7408 -78.6975 325° Northwest 241 277 4,500 -1,200 Descending Cleveland Center
11:19PM 42.7958 -78.7442 328° Northwest 243 280 3,400 -1,080 Descending Cleveland Center
11:20PM 42.8300 -78.8081 306° West 217 250 2,400 -1,020 Descending Cleveland Center